Time;durP1;ratioP1;P1;durP2;ratioP2;P2;SDS_P1;SDS_P2;PMS_P1;PMS_P2;Temp;Humidity;BMP_temperature;BMP_pressure;BME280_temperature;BME280_humidity;BME280_pressure;Samples;Min_cycle;Max_cycle;Signal;HPM_P1;HPM_P2
2023/05/08 00:00:20;;;;;;;23.77;19.40;;;14.00;99.90;;;;;;5073035;28;20023;-77
2023/05/08 00:02:46;;;;;;;28.35;20.83;;;14.00;99.90;;;;;;5066607;28;20159;-76
2023/05/08 00:05:12;;;;;;;27.10;20.80;;;14.00;99.90;;;;;;5073201;28;20162;-78
2023/05/08 00:07:38;;;;;;;27.40;19.45;;;14.00;99.90;;;;;;5072271;28;20066;-76
2023/05/08 00:10:05;;;;;;;23.42;19.60;;;14.10;99.90;;;;;;5062567;28;20033;-76
2023/05/08 00:12:30;;;;;;;24.52;19.95;;;14.00;99.90;;;;;;5071761;28;20056;-77
2023/05/08 00:14:56;;;;;;;25.45;21.05;;;14.10;99.90;;;;;;5069261;28;20424;-78
2023/05/08 00:17:22;;;;;;;31.25;23.50;;;14.10;99.90;;;;;;5070929;28;20028;-75
2023/05/08 00:19:47;;;;;;;31.83;22.52;;;14.10;99.90;;;;;;5066053;28;20058;-75
2023/05/08 00:22:13;;;;;;;28.42;21.27;;;14.10;99.90;;;;;;5063134;28;20099;-75
2023/05/08 00:24:39;;;;;;;28.58;21.90;;;14.10;99.90;;;;;;5070291;28;20302;-75
2023/05/08 00:27:05;;;;;;;29.33;22.77;;;14.10;99.90;;;;;;5067842;28;20028;-76
2023/05/08 00:29:31;;;;;;;25.30;21.25;;;14.10;99.90;;;;;;5069035;28;20032;-76
2023/05/08 00:31:56;;;;;;;27.55;20.30;;;14.10;99.90;;;;;;5065101;28;20108;-77
2023/05/08 00:34:22;;;;;;;24.00;18.25;;;14.10;99.90;;;;;;5069660;28;20033;-74
2023/05/08 00:36:47;;;;;;;19.90;15.85;;;14.20;99.90;;;;;;5057821;28;20385;-74
2023/05/08 00:39:13;;;;;;;19.30;16.17;;;14.10;99.90;;;;;;5065220;28;20432;-76
2023/05/08 00:41:38;;;;;;;20.52;15.43;;;14.10;99.90;;;;;;5063012;28;20044;-75
2023/05/08 00:44:04;;;;;;;19.63;16.05;;;14.10;99.90;;;;;;5069800;28;20029;-75
2023/05/08 00:46:30;;;;;;;20.98;14.55;;;14.10;99.90;;;;;;5060724;28;20518;-77
2023/05/08 00:48:56;;;;;;;16.85;15.05;;;14.10;99.90;;;;;;5057637;28;20033;-76
2023/05/08 00:51:22;;;;;;;17.77;14.05;;;14.10;99.90;;;;;;5048288;28;20058;-76
2023/05/08 00:53:48;;;;;;;19.42;16.13;;;14.10;99.90;;;;;;5060826;28;20021;-77
2023/05/08 00:56:14;;;;;;;21.08;16.98;;;14.10;99.90;;;;;;5063096;28;20036;-77
2023/05/08 00:58:40;;;;;;;18.63;15.57;;;14.10;99.90;;;;;;5065590;28;20035;-72
2023/05/08 01:01:06;;;;;;;16.35;13.70;;;14.10;99.90;;;;;;5061982;28;20033;-75
2023/05/08 01:03:35;;;;;;;16.52;14.07;;;14.10;99.90;;;;;;5068182;28;20027;-76
2023/05/08 01:06:02;;;;;;;14.73;11.95;;;14.10;99.90;;;;;;5063622;28;20162;-77
2023/05/08 01:08:27;;;;;;;15.13;12.60;;;14.00;99.90;;;;;;5069804;28;20041;-76
2023/05/08 01:11:27;;;;;;;15.52;12.60;;;14.00;99.90;;;;;;5069546;28;20029;-76
2023/05/08 01:14:18;;;;;;;21.25;17.75;;;14.00;99.90;;;;;;5064825;28;20033;-77
2023/05/08 01:16:45;;;;;;;;;;;14.10;99.90;;;;;;5061555;28;20470;-73
2023/05/08 01:19:32;;;;;;;14.90;13.32;;;14.00;99.90;;;;;;5070996;28;19993;-77
2023/05/08 01:22:37;;;;;;;21.92;15.95;;;14.00;99.90;;;;;;5069688;28;20052;-77
2023/05/08 01:25:33;;;;;;;17.40;12.80;;;14.00;99.90;;;;;;5058923;28;20029;-77
2023/05/08 01:28:33;;;;;;;15.45;13.65;;;14.00;99.90;;;;;;5060306;28;20477;-77
2023/05/08 01:31:12;;;;;;;17.05;14.85;;;14.00;99.90;;;;;;5061797;28;20020;-77
2023/05/08 01:34:04;;;;;;;17.35;14.07;;;14.00;99.90;;;;;;5073946;28;20373;-77
2023/05/08 01:36:47;;;;;;;18.98;14.90;;;14.00;99.90;;;;;;5056955;28;20036;-77
2023/05/08 01:39:20;;;;;;;16.48;14.13;;;14.00;99.90;;;;;;5072292;28;20032;-77
2023/05/08 01:41:58;;;;;;;17.60;14.57;;;14.10;99.90;;;;;;5058798;28;20032;-75
2023/05/08 01:44:28;;;;;;;21.80;17.73;;;14.00;99.90;;;;;;5057815;28;20596;-77
2023/05/08 01:46:54;;;;;;;23.92;19.40;;;14.00;99.90;;;;;;5058141;28;20053;-77
2023/05/08 01:49:33;;;;;;;21.08;17.42;;;14.00;99.90;;;;;;5072332;28;20123;-77
2023/05/08 01:52:04;;;;;;;24.98;18.17;;;14.00;99.90;;;;;;5067538;28;20029;-77
2023/05/08 01:54:40;;;;;;;33.65;24.38;;;14.10;99.90;;;;;;5064130;28;20036;-77
2023/05/08 01:57:09;;;;;;;40.05;27.52;;;14.10;99.90;;;;;;5080916;28;20110;-77
2023/05/08 01:59:37;;;;;;;33.10;24.67;;;14.10;99.90;;;;;;5071065;28;20039;-77
2023/05/08 02:02:04;;;;;;;30.42;23.15;;;14.10;99.90;;;;;;5074156;28;20480;-76
2023/05/08 02:04:32;;;;;;;36.28;25.45;;;14.10;99.90;;;;;;5073579;28;20075;-76
2023/05/08 02:06:59;;;;;;;25.33;19.80;;;14.10;99.90;;;;;;5066240;28;20041;-75
2023/05/08 02:09:27;;;;;;;21.50;16.73;;;14.10;99.90;;;;;;5068899;28;20039;-74
2023/05/08 02:11:55;;;;;;;18.42;16.02;;;14.10;99.90;;;;;;5073245;28;20086;-77
2023/05/08 02:14:22;;;;;;;19.75;15.52;;;14.10;99.90;;;;;;5074550;28;20112;-77
2023/05/08 02:16:49;;;;;;;19.27;15.00;;;14.10;99.90;;;;;;5073109;28;20029;-77
2023/05/08 02:19:17;;;;;;;17.67;15.02;;;14.10;99.90;;;;;;5073094;28;20029;-77
2023/05/08 02:21:45;;;;;;;23.67;15.80;;;14.10;99.90;;;;;;5069199;28;20075;-74
2023/05/08 02:24:13;;;;;;;16.02;13.68;;;14.10;99.90;;;;;;5056788;28;20121;-77
2023/05/08 02:26:40;;;;;;;15.07;13.43;;;14.10;99.90;;;;;;5063501;28;20354;-77
2023/05/08 02:29:06;;;;;;;13.15;11.73;;;14.10;99.90;;;;;;5077648;28;20127;-77
2023/05/08 02:31:33;;;;;;;16.77;13.30;;;14.20;99.90;;;;;;5071957;28;20100;-77
2023/05/08 02:33:59;;;;;;;17.05;13.57;;;14.10;99.90;;;;;;5070741;28;20028;-76
2023/05/08 02:36:27;;;;;;;15.77;13.25;;;14.10;99.90;;;;;;5063143;28;20036;-77
2023/05/08 02:38:57;;;;;;;16.02;13.63;;;14.10;99.90;;;;;;5072059;28;20064;-77
2023/05/08 02:41:24;;;;;;;15.43;13.23;;;14.10;99.90;;;;;;5063339;28;20029;-76
2023/05/08 02:43:53;;;;;;;14.98;12.75;;;14.00;99.90;;;;;;5065828;28;20050;-77
2023/05/08 02:46:27;;;;;;;17.48;13.80;;;14.00;99.90;;;;;;5069618;28;20443;-74
2023/05/08 02:48:58;;;;;;;17.55;15.68;;;14.00;99.90;;;;;;5060318;28;20037;-77
2023/05/08 02:51:44;;;;;;;17.58;14.23;;;14.00;99.90;;;;;;5061041;28;20470;-77
2023/05/08 02:54:16;;;;;;;20.65;14.13;;;14.10;99.90;;;;;;5059035;28;20056;-77
2023/05/08 02:57:05;;;;;;;18.10;13.85;;;14.10;99.90;;;;;;5054995;28;20033;-72
2023/05/08 02:59:38;;;;;;;16.55;13.70;;;14.10;99.90;;;;;;5071545;28;20033;-77
2023/05/08 03:02:09;;;;;;;15.15;13.55;;;14.10;99.90;;;;;;5063961;28;20024;-77
2023/05/08 03:04:40;;;;;;;14.35;12.60;;;14.20;99.90;;;;;;5066965;28;20017;-77
2023/05/08 03:07:06;;;;;;;17.95;13.38;;;14.10;99.90;;;;;;5071977;28;20491;-77
2023/05/08 03:09:41;;;;;;;15.73;13.48;;;14.10;99.90;;;;;;5072484;28;20055;-76
2023/05/08 03:12:13;;;;;;;20.08;14.50;;;14.10;99.90;;;;;;5060510;28;20488;-77
2023/05/08 03:14:45;;;;;;;20.08;14.73;;;14.10;99.90;;;;;;5069708;28;20052;-78
2023/05/08 03:17:15;;;;;;;16.30;13.15;;;14.10;99.90;;;;;;5062858;28;20091;-79
2023/05/08 03:19:43;;;;;;;14.73;13.03;;;14.10;99.90;;;;;;5070265;28;20461;-73
2023/05/08 03:22:10;;;;;;;16.92;14.40;;;14.00;99.90;;;;;;5061331;28;20025;-77
2023/05/08 03:24:38;;;;;;;17.50;15.23;;;14.10;99.90;;;;;;5069382;28;20074;-77
2023/05/08 03:27:05;;;;;;;16.23;14.65;;;14.00;99.90;;;;;;5063807;28;20095;-79
2023/05/08 03:29:32;;;;;;;18.90;14.65;;;14.00;99.90;;;;;;5062837;28;20469;-76
2023/05/08 03:32:01;;;;;;;16.92;14.18;;;14.10;99.90;;;;;;5065399;28;20475;-77
2023/05/08 03:34:29;;;;;;;16.38;14.68;;;14.00;99.90;;;;;;5078450;28;20103;-76
2023/05/08 03:36:55;;;;;;;17.20;15.07;;;14.00;99.90;;;;;;5069773;28;20496;-76
2023/05/08 03:39:21;;;;;;;18.52;15.77;;;14.00;99.90;;;;;;5072323;28;20054;-78
2023/05/08 03:41:48;;;;;;;19.50;15.48;;;13.90;99.90;;;;;;5071651;28;20025;-77
2023/05/08 03:44:15;;;;;;;18.05;16.00;;;14.00;99.90;;;;;;5069776;28;20024;-79
2023/05/08 03:46:41;;;;;;;19.70;15.35;;;13.90;99.90;;;;;;5056895;28;20095;-74
2023/05/08 03:49:08;;;;;;;18.60;15.02;;;14.00;99.90;;;;;;5066429;28;20124;-77
2023/05/08 03:51:38;;;;;;;18.55;16.50;;;14.00;99.90;;;;;;5074562;28;20028;-75
2023/05/08 03:54:04;;;;;;;;;;;14.00;99.90;;;;;;5070689;28;20115;-78
2023/05/08 03:56:30;;;;;;;20.27;17.85;;;14.00;99.90;;;;;;5057596;28;19999;-77
2023/05/08 03:59:13;;;;;;;20.38;17.13;;;14.00;99.90;;;;;;5080910;28;20032;-78
2023/05/08 04:01:45;;;;;;;20.67;17.33;;;14.00;99.90;;;;;;5075144;28;20031;-77
2023/05/08 04:04:17;;;;;;;18.33;16.40;;;14.00;99.90;;;;;;5072829;28;20384;-78
2023/05/08 04:06:49;;;;;;;18.52;15.70;;;13.90;99.90;;;;;;5067721;28;20028;-73
2023/05/08 04:09:27;;;;;;;17.98;15.55;;;13.90;99.90;;;;;;5080808;28;20457;-77
2023/05/08 04:12:02;;;;;;;17.98;16.13;;;13.90;99.90;;;;;;5058091;28;20024;-77
2023/05/08 04:14:34;;;;;;;19.88;16.15;;;14.00;99.90;;;;;;5068914;28;20025;-77
2023/05/08 04:17:03;;;;;;;17.98;16.08;;;14.00;99.90;;;;;;5062282;28;20857;-78
2023/05/08 04:19:34;;;;;;;21.20;16.70;;;14.00;99.90;;;;;;5068413;28;20036;-78
2023/05/08 04:22:06;;;;;;;18.92;16.95;;;14.00;99.90;;;;;;5060921;28;20058;-78
2023/05/08 04:24:37;;;;;;;18.13;16.05;;;14.00;99.90;;;;;;5060369;28;20049;-78
2023/05/08 04:27:03;;;;;;;17.23;15.38;;;14.00;99.90;;;;;;5063433;28;20206;-77
2023/05/08 04:29:31;;;;;;;18.80;16.80;;;13.90;99.90;;;;;;5071837;28;20465;-79
2023/05/08 04:31:59;;;;;;;21.40;18.92;;;14.00;99.90;;;;;;5068774;28;20535;-77
2023/05/08 04:34:24;;;;;;;18.55;16.55;;;14.00;99.90;;;;;;5062000;28;20024;-78
2023/05/08 04:36:51;;;;;;;18.65;16.60;;;14.00;99.90;;;;;;5069686;28;20107;-77
2023/05/08 04:39:17;;;;;;;19.35;16.20;;;14.00;99.90;;;;;;5060242;28;20058;-78
2023/05/08 04:41:42;;;;;;;18.73;16.73;;;14.00;99.90;;;;;;5070620;28;20070;-73
2023/05/08 04:44:08;;;;;;;19.48;17.38;;;14.00;99.90;;;;;;5066320;28;20040;-75
2023/05/08 04:46:33;;;;;;;19.40;17.23;;;14.00;99.90;;;;;;5068591;28;20067;-78
2023/05/08 04:48:59;;;;;;;20.45;16.88;;;14.10;99.90;;;;;;5068803;28;20052;-78
2023/05/08 04:51:25;;;;;;;19.33;17.20;;;14.10;99.90;;;;;;5063079;28;20025;-79
2023/05/08 04:53:50;;;;;;;19.35;17.15;;;14.10;99.90;;;;;;5062888;28;20032;-78
2023/05/08 04:56:18;;;;;;;18.80;16.80;;;14.10;99.90;;;;;;5044103;28;20112;-77
2023/05/08 04:58:43;;;;;;;17.77;15.85;;;14.10;99.90;;;;;;5063615;28;20162;-75
2023/05/08 05:01:09;;;;;;;18.90;16.77;;;14.10;99.90;;;;;;5078670;28;20110;-77
2023/05/08 05:03:35;;;;;;;17.85;15.98;;;14.10;99.90;;;;;;5067866;28;20029;-79
2023/05/08 05:06:01;;;;;;;17.63;14.88;;;14.10;99.90;;;;;;5063309;28;20033;-80
2023/05/08 05:08:26;;;;;;;17.92;16.00;;;14.10;99.90;;;;;;5064330;28;20037;-82
2023/05/08 05:10:52;;;;;;;18.33;15.35;;;14.20;99.90;;;;;;5069012;28;20384;-80
2023/05/08 05:13:18;;;;;;;19.90;15.75;;;14.10;99.90;;;;;;5065783;28;20036;-80
2023/05/08 05:15:44;;;;;;;18.27;15.98;;;14.20;99.90;;;;;;5070630;28;20020;-74
2023/05/08 05:18:10;;;;;;;15.23;13.68;;;14.20;99.90;;;;;;5064560;28;20063;-78
2023/05/08 05:20:36;;;;;;;18.13;15.63;;;14.20;99.90;;;;;;5079209;28;20028;-79
2023/05/08 05:23:02;;;;;;;18.48;15.48;;;14.20;99.90;;;;;;5070524;28;20021;-79
2023/05/08 05:25:27;;;;;;;19.95;16.75;;;14.20;99.90;;;;;;5071059;28;20036;-81
2023/05/08 05:27:53;;;;;;;19.60;17.13;;;14.20;99.90;;;;;;5076376;28;20495;-78
2023/05/08 05:30:18;;;;;;;17.10;15.27;;;14.20;99.90;;;;;;5068024;28;20032;-82
2023/05/08 05:32:44;;;;;;;18.63;15.60;;;14.20;99.90;;;;;;5069869;28;20025;-78
2023/05/08 05:35:10;;;;;;;22.98;17.02;;;14.20;99.90;;;;;;5063021;28;20025;-81
2023/05/08 05:37:36;;;;;;;17.85;15.52;;;14.10;99.90;;;;;;5055926;28;20025;-91
2023/05/08 05:40:02;;;;;;;19.10;17.02;;;14.10;99.90;;;;;;5069687;28;20033;-83
2023/05/08 05:42:27;;;;;;;20.65;17.55;;;14.10;99.90;;;;;;5073734;28;20035;-81
2023/05/08 05:44:53;;;;;;;20.40;18.05;;;14.10;99.90;;;;;;5071747;28;20028;-90
2023/05/08 05:47:18;;;;;;;21.88;18.10;;;14.10;99.90;;;;;;5069963;28;20060;-89
2023/05/08 05:49:46;;;;;;;21.13;18.80;;;14.10;99.90;;;;;;5065692;28;20387;-76
2023/05/08 05:52:12;;;;;;;23.30;19.60;;;14.10;99.90;;;;;;5057800;28;20123;-80
2023/05/08 05:54:38;;;;;;;22.95;18.95;;;14.10;99.90;;;;;;5060424;28;20110;-77
2023/05/08 05:57:04;;;;;;;22.38;17.98;;;14.00;99.90;;;;;;5055312;28;20083;-80
2023/05/08 05:59:30;;;;;;;22.10;19.38;;;14.00;99.90;;;;;;5066815;28;20042;-81
2023/05/08 06:01:55;;;;;;;25.38;18.83;;;14.00;99.90;;;;;;5066279;28;20448;-81
2023/05/08 06:04:21;;;;;;;19.90;17.80;;;14.00;99.90;;;;;;5062471;28;20024;-81
2023/05/08 06:06:47;;;;;;;19.30;16.55;;;14.00;99.90;;;;;;5072531;28;20067;-81
2023/05/08 06:09:12;;;;;;;19.63;17.20;;;14.00;99.90;;;;;;5074174;28;20083;-83
2023/05/08 06:11:38;;;;;;;17.73;15.88;;;14.10;99.90;;;;;;5065085;28;20616;-80
2023/05/08 06:14:03;;;;;;;17.77;15.73;;;14.10;99.90;;;;;;5062674;28;20151;-74
2023/05/08 06:16:29;;;;;;;18.00;15.95;;;14.10;99.90;;;;;;5072654;28;20107;-74
2023/05/08 06:18:55;;;;;;;20.63;16.55;;;14.10;99.90;;;;;;5065457;28;20033;-74
2023/05/08 06:21:27;;;;;;;17.33;15.45;;;14.10;99.90;;;;;;5066150;28;20024;-74
2023/05/08 06:23:53;;;;;;;21.27;16.80;;;14.10;99.90;;;;;;5074965;28;20504;-74
2023/05/08 06:26:20;;;;;;;18.05;15.38;;;14.10;99.90;;;;;;5071307;28;20021;-74
2023/05/08 06:28:45;;;;;;;18.13;16.23;;;14.10;99.90;;;;;;5088475;28;20504;-74
2023/05/08 06:31:11;;;;;;;16.48;14.75;;;14.10;99.90;;;;;;5078520;28;20029;-74
2023/05/08 06:33:37;;;;;;;19.73;15.38;;;14.10;99.90;;;;;;5072753;28;20038;-73
2023/05/08 06:36:05;;;;;;;17.25;15.45;;;14.20;99.90;;;;;;5062097;28;20075;-75
2023/05/08 06:38:30;;;;;;;16.88;15.02;;;14.20;99.90;;;;;;5073029;28;20051;-74
2023/05/08 06:40:56;;;;;;;17.65;15.30;;;14.20;99.90;;;;;;5072993;28;20445;-76
2023/05/08 06:43:22;;;;;;;16.95;14.88;;;14.30;99.90;;;;;;5072949;28;20123;-75
2023/05/08 06:45:47;;;;;;;16.85;15.00;;;14.30;99.90;;;;;;5076669;28;20052;-75
2023/05/08 06:48:13;;;;;;;16.33;14.63;;;14.30;99.90;;;;;;5072190;28;20048;-75
2023/05/08 06:50:39;;;;;;;18.98;14.80;;;14.30;99.90;;;;;;5073491;28;20016;-75
2023/05/08 06:53:06;;;;;;;15.35;13.57;;;14.30;99.90;;;;;;5069441;28;20478;-75
2023/05/08 06:55:31;;;;;;;17.13;15.43;;;14.40;99.90;;;;;;5073374;28;20025;-74
2023/05/08 06:57:57;;;;;;;16.80;15.10;;;14.40;99.90;;;;;;5071646;28;20035;-73
2023/05/08 07:00:23;;;;;;;17.50;15.18;;;14.40;99.90;;;;;;5073018;28;20052;-74
2023/05/08 07:02:48;;;;;;;17.70;14.77;;;14.40;99.90;;;;;;5071801;28;20024;-75
2023/05/08 07:05:14;;;;;;;18.23;16.40;;;14.40;99.90;;;;;;5073431;28;20484;-76
2023/05/08 07:07:41;;;;;;;19.05;14.82;;;14.50;99.90;;;;;;5071210;28;20028;-75
2023/05/08 07:10:07;;;;;;;15.80;14.20;;;14.50;99.90;;;;;;5067610;28;20028;-74
2023/05/08 07:12:33;;;;;;;16.27;14.57;;;14.50;99.90;;;;;;5063191;28;20376;-74
2023/05/08 07:14:58;;;;;;;17.67;14.45;;;14.50;99.90;;;;;;5072102;28;20113;-73
2023/05/08 07:17:24;;;;;;;17.92;16.02;;;14.50;99.90;;;;;;5077256;28;20081;-74
2023/05/08 07:19:50;;;;;;;18.15;16.27;;;14.50;99.90;;;;;;5067942;28;20072;-74
2023/05/08 07:22:16;;;;;;;18.83;14.80;;;14.50;99.90;;;;;;5072013;28;20074;-76
2023/05/08 07:24:41;;;;;;;16.92;15.07;;;14.50;99.90;;;;;;5065723;28;20411;-71
2023/05/08 07:27:07;;;;;;;17.50;15.80;;;14.50;99.90;;;;;;5057929;28;20025;-75
2023/05/08 07:29:36;;;;;;;21.17;15.18;;;14.60;99.90;;;;;;5059116;28;20457;-74
2023/05/08 07:32:06;;;;;;;18.33;16.40;;;14.60;99.90;;;;;;5069000;28;20764;-75
2023/05/08 07:34:33;;;;;;;20.55;16.30;;;14.60;99.90;;;;;;5074816;28;20433;-76
2023/05/08 07:36:58;;;;;;;20.13;15.80;;;14.70;99.90;;;;;;5073015;28;20029;-74
2023/05/08 07:39:24;;;;;;;21.27;15.35;;;14.70;99.90;;;;;;5074275;28;20361;-75
2023/05/08 07:41:49;;;;;;;16.20;14.48;;;14.70;99.90;;;;;;5073982;28;20036;-75
2023/05/08 07:44:15;;;;;;;16.20;14.43;;;14.70;99.90;;;;;;5075860;28;20033;-74
2023/05/08 07:46:41;;;;;;;16.58;14.63;;;14.70;99.90;;;;;;5062711;28;20080;-72
2023/05/08 07:49:06;;;;;;;16.60;14.48;;;14.70;99.90;;;;;;5072162;28;20043;-76
2023/05/08 07:51:32;;;;;;;19.20;15.25;;;14.70;99.90;;;;;;5072375;28;20024;-74
2023/05/08 07:53:57;;;;;;;14.88;13.38;;;14.80;99.90;;;;;;5070462;28;20056;-72
2023/05/08 07:56:23;;;;;;;14.32;12.93;;;14.90;99.90;;;;;;5072213;28;20027;-73
2023/05/08 07:58:49;;;;;;;14.70;12.68;;;15.00;99.90;;;;;;5070269;28;20028;-74
2023/05/08 08:01:16;;;;;;;15.07;11.98;;;15.00;99.90;;;;;;5069261;28;20024;-74
2023/05/08 08:03:43;;;;;;;12.25;11.00;;;15.00;99.90;;;;;;5070874;28;20017;-71
2023/05/08 08:06:09;;;;;;;13.07;11.65;;;15.10;99.90;;;;;;5071710;28;20097;-75
2023/05/08 08:08:34;;;;;;;11.50;10.27;;;15.20;99.90;;;;;;5071031;28;20071;-75
2023/05/08 08:11:00;;;;;;;11.73;9.18;;;15.20;99.90;;;;;;5069839;28;20025;-74
2023/05/08 08:13:26;;;;;;;10.68;8.95;;;15.40;99.90;;;;;;5069533;28;20025;-76
2023/05/08 08:15:51;;;;;;;9.18;8.15;;;15.50;99.90;;;;;;5071102;28;20476;-75
2023/05/08 08:18:17;;;;;;;7.88;7.05;;;15.60;99.90;;;;;;5060816;28;20067;-76
2023/05/08 08:20:43;;;;;;;12.85;7.95;;;15.60;99.90;;;;;;5071395;28;20456;-72
2023/05/08 08:23:08;;;;;;;8.52;6.82;;;15.60;99.90;;;;;;5069881;28;20024;-75
2023/05/08 08:25:34;;;;;;;10.13;7.20;;;15.60;99.90;;;;;;5071248;28;20475;-74
2023/05/08 08:27:59;;;;;;;8.05;6.72;;;15.50;99.90;;;;;;5078664;28;20132;-74
2023/05/08 08:30:25;;;;;;;9.23;7.45;;;15.50;99.90;;;;;;5075951;28;20064;-75
2023/05/08 08:32:51;;;;;;;9.52;7.70;;;15.50;99.90;;;;;;5069780;28;20024;-75
2023/05/08 08:35:17;;;;;;;8.02;7.22;;;15.50;99.90;;;;;;5068974;28;20067;-74
2023/05/08 08:37:42;;;;;;;10.27;8.15;;;15.50;99.90;;;;;;5060407;28;20471;-72
2023/05/08 08:40:08;;;;;;;8.93;8.07;;;15.60;99.90;;;;;;5071170;28;20072;-74
2023/05/08 08:42:34;;;;;;;11.48;8.43;;;15.70;99.90;;;;;;5070664;28;20069;-74
2023/05/08 08:45:00;;;;;;;10.88;9.02;;;15.80;99.90;;;;;;5067363;28;20219;-73
2023/05/08 08:47:36;;;;;;;10.57;8.55;;;15.90;99.90;;;;;;5067806;28;20045;-74
2023/05/08 08:50:02;;;;;;;10.85;8.80;;;16.10;99.90;;;;;;5062939;28;20056;-75
2023/05/08 08:52:34;;;;;;;14.20;9.20;;;16.10;99.90;;;;;;5060802;28;20056;-75
2023/05/08 08:55:03;;;;;;;8.82;7.88;;;16.10;99.90;;;;;;5070520;28;20033;-75
2023/05/08 08:57:33;;;;;;;10.52;9.43;;;16.10;99.90;;;;;;5070889;28;20032;-74
2023/05/08 09:00:03;;;;;;;11.25;9.02;;;16.20;99.90;;;;;;5070144;28;20111;-75
2023/05/08 09:02:30;;;;;;;;;;;16.20;99.90;;;;;;5070751;28;20393;-70
2023/05/08 09:04:56;;;;;;;11.02;8.20;;;16.20;99.90;;;;;;5070390;28;19904;-74
2023/05/08 09:07:22;;;;;;;10.38;8.55;;;16.20;99.90;;;;;;5070558;28;20380;-75
2023/05/08 09:09:48;;;;;;;10.57;8.73;;;16.10;99.90;;;;;;5067052;28;20032;-75
2023/05/08 09:12:14;;;;;;;9.75;8.65;;;16.10;99.90;;;;;;5070618;28;20033;-75
2023/05/08 09:14:40;;;;;;;16.58;10.75;;;16.10;99.90;;;;;;5071537;28;20021;-74
2023/05/08 09:17:06;;;;;;;13.07;10.45;;;16.00;99.90;;;;;;5070397;28;20112;-76
2023/05/08 09:19:33;;;;;;;12.10;10.52;;;15.90;99.90;;;;;;5070976;28;20094;-74
2023/05/08 09:22:00;;;;;;;10.68;9.52;;;15.80;99.90;;;;;;5069830;28;20086;-74
2023/05/08 09:24:26;;;;;;;11.70;9.88;;;15.70;99.90;;;;;;5071135;28;20025;-75
2023/05/08 09:26:52;;;;;;;16.42;11.13;;;15.70;99.90;;;;;;5062794;28;20028;-74
2023/05/08 09:29:21;;;;;;;13.32;10.77;;;15.70;99.90;;;;;;5076167;28;20045;-75
2023/05/08 09:31:51;;;;;;;14.65;12.15;;;15.80;99.90;;;;;;5069611;28;20032;-74
2023/05/08 09:34:26;;;;;;;;;;;15.80;99.90;;;;;;5071306;28;20047;-76
2023/05/08 09:36:53;;;;;;;16.05;12.30;;;15.70;99.90;;;;;;5069707;28;19904;-76
2023/05/08 09:39:23;;;;;;;16.70;12.98;;;15.80;99.90;;;;;;5066158;28;20032;-76
2023/05/08 09:42:00;;;;;;;16.48;13.30;;;15.80;99.90;;;;;;5067580;28;20569;-74
2023/05/08 09:44:26;;;;;;;16.42;12.10;;;15.80;99.90;;;;;;5061337;28;20078;-76
2023/05/08 09:47:08;;;;;;;16.73;13.13;;;15.80;99.90;;;;;;5071764;28;20061;-73
2023/05/08 09:49:33;;;;;;;15.35;11.90;;;15.90;99.90;;;;;;5074853;28;20024;-75
2023/05/08 09:51:59;;;;;;;13.75;11.15;;;16.00;99.90;;;;;;5073127;28;20132;-75
2023/05/08 09:54:24;;;;;;;16.38;12.68;;;16.00;99.90;;;;;;5074726;28;20059;-75
2023/05/08 09:56:50;;;;;;;12.93;10.90;;;16.20;99.90;;;;;;5073229;28;20484;-78
2023/05/08 09:59:27;;;;;;;13.27;10.73;;;16.30;99.90;;;;;;5068938;28;20083;-75
2023/05/08 10:01:54;;;;;;;13.25;8.80;;;16.50;99.90;;;;;;5070043;28;20385;-73
2023/05/08 10:04:38;;;;;;;13.55;11.25;;;16.70;99.90;;;;;;5064455;28;20469;-74
2023/05/08 10:07:03;;;;;;;13.07;10.80;;;17.00;99.90;;;;;;5066362;28;20059;-74
2023/05/08 10:09:29;;;;;;;11.90;10.23;;;17.20;99.90;;;;;;5074381;28;20385;-74
2023/05/08 10:11:55;;;;;;;13.20;10.63;;;17.30;99.90;;;;;;5072817;28;20103;-75
2023/05/08 10:14:22;;;;;;;11.70;9.25;;;17.40;99.90;;;;;;5073929;28;20096;-76
2023/05/08 10:16:52;;;;;;;12.30;8.70;;;17.50;99.90;;;;;;5070233;28;20027;-75
2023/05/08 10:19:20;;;;;;;11.55;9.10;;;17.60;99.90;;;;;;5074199;28;20033;-75
2023/05/08 10:21:50;;;;;;;10.20;8.75;;;17.60;99.90;;;;;;5068180;28;20028;-72
2023/05/08 10:24:39;;;;;;;8.98;7.70;;;17.70;99.90;;;;;;5073660;28;20034;-74
2023/05/08 10:27:18;;;;;;;9.57;7.75;;;17.70;99.90;;;;;;5071216;28;20020;-74
2023/05/08 10:29:53;;;;;;;9.35;7.45;;;17.80;99.90;;;;;;5074692;28;20461;-71
2023/05/08 10:32:20;;;;;;;9.82;7.90;;;17.90;99.90;;;;;;5066432;28;20058;-75
2023/05/08 10:34:58;;;;;;;10.77;8.65;;;17.90;99.90;;;;;;5061421;28;20426;-74
2023/05/08 10:37:24;;;;;;;9.88;8.18;;;17.90;99.90;;;;;;5073461;28;20029;-75
2023/05/08 10:39:52;;;;;;;10.15;8.55;;;18.00;99.90;;;;;;5069774;28;20098;-75
2023/05/08 10:42:18;;;;;;;11.20;8.82;;;18.00;99.90;;;;;;5068429;28;20056;-75
2023/05/08 10:44:45;;;;;;;9.63;7.68;;;18.00;99.90;;;;;;5075297;28;20086;-72
2023/05/08 10:47:35;;;;;;;9.07;7.57;;;17.90;99.90;;;;;;5072867;28;20048;-76
2023/05/08 10:50:07;;;;;;;8.43;6.90;;;17.80;99.90;;;;;;5062394;28;20033;-74
2023/05/08 10:52:48;;;;;;;7.60;6.88;;;17.80;99.90;;;;;;5072574;28;20025;-76
2023/05/08 10:55:29;;;;;;;9.95;6.90;;;17.70;99.90;;;;;;5064108;28;20039;-76
2023/05/08 10:58:09;;;;;;;7.30;6.57;;;17.70;99.90;;;;;;5063502;28;20496;-75
2023/05/08 11:01:06;;;;;;;7.88;7.07;;;17.80;99.90;;;;;;5073675;28;20033;-76
2023/05/08 11:03:47;;;;;;;6.75;6.05;;;17.80;99.90;;;;;;5053238;28;20033;-74
2023/05/08 11:06:13;;;;;;;7.88;7.15;;;17.80;99.90;;;;;;5070345;28;20035;-74
2023/05/08 11:08:50;;;;;;;9.20;7.07;;;17.80;99.90;;;;;;5060604;28;20035;-76
2023/05/08 11:11:30;;;;;;;6.40;5.80;;;17.70;99.90;;;;;;5073367;28;20103;-75
2023/05/08 11:14:07;;;;;;;;;;;17.70;99.90;;;;;;5072011;28;20040;-76
2023/05/08 11:17:01;;;;;;;6.60;5.70;;;17.60;99.90;;;;;;5073193;28;19927;-76
2023/05/08 11:19:27;;;;;;;7.28;6.15;;;17.60;99.90;;;;;;5073172;28;20036;-76
2023/05/08 11:22:24;;;;;;;6.22;5.20;;;17.70;99.90;;;;;;5071055;28;20025;-72
2023/05/08 11:25:06;;;;;;;8.73;6.30;;;17.70;99.90;;;;;;5045807;28;20044;-74
2023/05/08 11:27:39;;;;;;;6.25;5.40;;;17.80;99.90;;;;;;5081015;28;20047;-74
2023/05/08 11:30:37;;;;;;;7.03;6.32;;;17.90;99.90;;;;;;5084292;28;20032;-76
2023/05/08 11:33:02;;;;;;;6.53;5.93;;;18.10;99.90;;;;;;5064176;28;20031;-75
2023/05/08 11:35:55;;;;;;;7.53;6.75;;;18.40;99.90;;;;;;5075272;28;20021;-75
2023/05/08 11:38:26;;;;;;;10.27;7.43;;;18.60;99.90;;;;;;5054624;28;20038;-75
2023/05/08 11:40:56;;;;;;;9.45;7.95;;;18.70;99.90;;;;;;5066299;28;20070;-77
2023/05/08 11:43:54;;;;;;;9.50;8.07;;;19.00;99.90;;;;;;5071756;28;20029;-76
2023/05/08 11:46:20;;;;;;;8.43;6.97;;;19.20;99.90;;;;;;5055722;28;20045;-76
2023/05/08 11:48:47;;;;;;;8.07;6.90;;;19.60;99.90;;;;;;5063860;28;20029;-76
2023/05/08 11:51:15;;;;;;;9.15;7.38;;;19.80;99.90;;;;;;5071948;28;20024;-77
2023/05/08 11:53:43;;;;;;;8.43;7.63;;;20.10;99.90;;;;;;5071089;28;20029;-73
2023/05/08 11:56:08;;;;;;;9.10;7.85;;;20.10;99.90;;;;;;5071870;28;20028;-76
2023/05/08 11:58:35;;;;;;;9.90;8.35;;;20.00;99.90;;;;;;5070417;28;20465;-77
2023/05/08 12:01:01;;;;;;;11.10;8.48;;;20.00;99.90;;;;;;5074533;28;20036;-75
2023/05/08 12:03:26;;;;;;;9.73;8.73;;;19.90;99.90;;;;;;5071327;28;20112;-75
2023/05/08 12:05:56;;;;;;;10.77;9.60;;;20.20;99.90;;;;;;5071272;28;20112;-75
2023/05/08 12:08:22;;;;;;;11.05;8.80;;;20.60;99.90;;;;;;5065148;28;20033;-75
2023/05/08 12:10:50;;;;;;;14.15;9.20;;;20.70;99.90;;;;;;5063378;28;20508;-75
2023/05/08 12:13:26;;;;;;;9.73;7.97;;;20.80;99.90;;;;;;5068184;28;20060;-76
2023/05/08 12:15:55;;;;;;;11.48;9.98;;;20.90;99.90;;;;;;5060068;28;20143;-75
2023/05/08 12:18:21;;;;;;;9.75;8.60;;;21.10;99.90;;;;;;5069557;28;20020;-75
2023/05/08 12:20:54;;;;;;;11.93;9.60;;;;;;;;;;5071049;28;20024;-75
2023/05/08 12:23:20;;;;;;;11.07;9.88;;;;;;;;;;5073500;28;20025;-76
2023/05/08 12:25:46;;;;;;;10.18;8.70;;;22.60;99.90;;;;;;5071013;28;20024;-74
2023/05/08 12:28:11;;;;;;;16.05;9.30;;;23.30;99.90;;;;;;5079007;28;20031;-76
2023/05/08 12:30:37;;;;;;;10.10;9.10;;;23.60;99.90;;;;;;5071507;28;20024;-75
2023/05/08 12:33:04;;;;;;;9.07;7.50;;;23.70;99.90;;;;;;5067301;28;20650;-75
2023/05/08 12:35:31;;;;;;;8.55;7.70;;;23.60;99.90;;;;;;5071409;28;20457;-76
2023/05/08 12:38:02;;;;;;;9.30;7.47;;;23.80;99.90;;;;;;5069794;28;20109;-76
2023/05/08 12:40:44;;;;;;;9.65;7.22;;;23.80;99.90;;;;;;5061749;28;20470;-76
2023/05/08 12:43:10;;;;;;;8.88;7.95;;;23.70;99.90;;;;;;5062062;28;20043;-75